createdAt,value
2018-01-12T00:00:17.826Z,13.85
2018-01-12T00:02:47.658Z,12.73
2018-01-12T00:07:50.450Z,13.73
2018-01-12T00:10:18.837Z,12.57
2018-01-12T00:12:48.068Z,14.30
2018-01-12T00:15:16.459Z,13.82
2018-01-12T00:17:51.192Z,14.55
2018-01-12T00:20:24.262Z,12.63
2018-01-12T00:22:52.869Z,14.23
2018-01-12T00:25:21.234Z,14.90
2018-01-12T00:27:49.538Z,14.05
2018-01-12T00:30:19.349Z,15.13
2018-01-12T00:32:47.684Z,14.73
2018-01-12T00:35:16.031Z,16.20
2018-01-12T00:37:44.364Z,15.75
2018-01-12T00:40:12.695Z,15.10
2018-01-12T00:42:41.062Z,14.38
2018-01-12T00:45:09.413Z,15.95
2018-01-12T00:47:38.557Z,14.45
2018-01-12T00:50:06.845Z,13.50
2018-01-12T00:52:37.014Z,13.23
2018-01-12T00:55:07.093Z,13.20
2018-01-12T01:00:10.941Z,14.25
2018-01-12T01:02:39.257Z,13.23
2018-01-12T01:05:22.143Z,13.57
2018-01-12T01:07:50.472Z,14.63
2018-01-12T01:10:19.073Z,12.37
2018-01-12T01:12:47.424Z,13.93
2018-01-12T01:15:15.777Z,14.02
2018-01-12T01:17:44.180Z,13.98
2018-01-12T01:20:12.503Z,14.07
2018-01-12T01:22:43.137Z,14.10
2018-01-12T01:25:11.545Z,13.75
2018-01-12T01:27:47.272Z,14.52
2018-01-12T01:30:15.598Z,13.95
2018-01-12T01:32:43.869Z,14.45
2018-01-12T01:35:23.344Z,15.35
2018-01-12T01:37:51.703Z,14.52
2018-01-12T01:40:20.067Z,13.75
2018-01-12T01:42:48.420Z,15.25
2018-01-12T01:45:16.738Z,14.70
2018-01-12T01:47:46.810Z,13.75
2018-01-12T01:52:54.282Z,14.07
2018-01-12T01:55:22.705Z,14.43
2018-01-12T01:57:50.996Z,14.35
2018-01-12T02:00:19.532Z,14.18
2018-01-12T02:02:48.620Z,14.80
2018-01-12T02:05:16.831Z,14.20
2018-01-12T02:07:45.152Z,15.20
2018-01-12T02:10:13.345Z,14.10
2018-01-12T02:12:41.592Z,14.65
2018-01-12T02:15:09.806Z,15.65
2018-01-12T02:17:38.106Z,13.52
2018-01-12T02:20:07.106Z,13.13
2018-01-12T02:22:35.340Z,13.00
2018-01-12T02:25:03.596Z,12.02
2018-01-12T02:27:31.815Z,12.68
2018-01-12T02:30:01.234Z,12.13
2018-01-12T02:32:29.543Z,12.85
2018-01-12T02:34:57.769Z,13.55
2018-01-12T02:37:27.712Z,12.48
2018-01-12T02:39:55.940Z,12.05
2018-01-12T02:42:24.187Z,11.32
2018-01-12T02:44:52.400Z,12.00
2018-01-12T02:47:21.413Z,11.50
2018-01-12T02:49:49.647Z,12.40
2018-01-12T02:52:17.857Z,11.80
2018-01-12T02:54:46.082Z,12.20
2018-01-12T02:57:14.330Z,12.90
2018-01-12T02:59:42.575Z,12.63
2018-01-12T03:02:11.607Z,13.07
2018-01-12T03:04:39.848Z,13.75
2018-01-12T03:07:08.826Z,13.02
2018-01-12T03:09:37.827Z,14.80
2018-01-12T03:12:06.798Z,13.95
2018-01-12T03:14:35.007Z,12.77
2018-01-12T03:17:03.251Z,13.82
2018-01-12T03:19:31.471Z,12.82
2018-01-12T03:21:59.663Z,13.95
2018-01-12T03:24:27.882Z,13.68
2018-01-12T03:26:56.878Z,14.40
2018-01-12T03:29:25.918Z,14.13
2018-01-12T03:31:54.212Z,14.70
2018-01-12T03:34:22.569Z,17.85
2018-01-12T03:36:50.803Z,16.75
2018-01-12T03:39:19.814Z,14.73
2018-01-12T03:41:48.024Z,18.20
2018-01-12T03:44:16.283Z,17.50
2018-01-12T03:46:44.593Z,18.10
2018-01-12T03:49:12.792Z,18.17
2018-01-12T03:51:41.045Z,17.90
2018-01-12T03:54:09.532Z,19.50
2018-01-12T03:56:37.790Z,19.40
2018-01-12T03:59:05.983Z,20.23
2018-01-12T04:01:34.221Z,20.75
2018-01-12T04:04:04.023Z,21.37
2018-01-12T04:06:32.210Z,19.67
2018-01-12T04:09:00.427Z,22.40
2018-01-12T04:11:28.611Z,22.30
2018-01-12T04:13:57.612Z,21.40
2018-01-12T04:16:26.586Z,24.65
2018-01-12T04:18:54.794Z,22.87
2018-01-12T04:21:23.134Z,24.33
2018-01-12T04:23:51.367Z,25.12
2018-01-12T04:26:19.574Z,24.33
2018-01-12T04:28:47.841Z,27.83
2018-01-12T04:31:16.052Z,26.23
2018-01-12T04:33:45.045Z,27.30
2018-01-12T04:36:13.994Z,28.35
2018-01-12T04:38:42.204Z,29.50
2018-01-12T04:41:11.161Z,28.60
2018-01-12T04:43:39.478Z,27.40
2018-01-12T04:46:08.484Z,27.42
2018-01-12T04:48:36.737Z,31.30
2018-01-12T04:51:05.713Z,34.45
2018-01-12T04:53:33.890Z,32.95
2018-01-12T04:56:02.114Z,30.08
2018-01-12T04:58:30.314Z,34.13
2018-01-12T05:00:58.522Z,31.30
2018-01-12T05:03:27.480Z,33.10
2018-01-12T05:05:55.683Z,31.95
2018-01-12T05:08:24.701Z,33.25
2018-01-12T05:10:52.954Z,35.05
2018-01-12T05:13:21.955Z,31.83
2018-01-12T05:15:50.939Z,34.88
2018-01-12T05:18:19.941Z,33.22
2018-01-12T05:20:48.998Z,37.50
2018-01-12T05:23:17.267Z,36.28
2018-01-12T05:25:45.458Z,32.05
2018-01-12T05:28:13.676Z,36.17
2018-01-12T05:30:41.868Z,33.35
2018-01-12T05:33:10.080Z,36.20
2018-01-12T05:35:38.321Z,37.53
2018-01-12T05:38:06.631Z,33.92
2018-01-12T05:40:34.954Z,36.08
2018-01-12T05:43:03.158Z,35.13
2018-01-12T05:45:31.479Z,34.00
2018-01-12T05:47:59.731Z,31.62
2018-01-12T05:50:27.956Z,34.45
2018-01-12T05:52:56.138Z,33.00
2018-01-12T05:55:25.505Z,36.50
2018-01-12T05:57:53.725Z,31.58
2018-01-12T06:00:22.755Z,37.70
2018-01-12T06:03:08.753Z,34.00
2018-01-12T06:09:04.883Z,32.38
2018-01-12T06:11:33.132Z,38.90
2018-01-12T06:14:01.504Z,31.20
2018-01-12T06:16:29.697Z,32.63
2018-01-12T06:18:57.901Z,36.92
2018-01-12T06:21:26.099Z,30.73
2018-01-12T06:23:54.666Z,31.77
2018-01-12T06:26:23.017Z,32.47
2018-01-12T06:28:51.210Z,33.42
2018-01-12T06:31:20.130Z,31.20
2018-01-12T06:33:48.764Z,34.05
2018-01-12T06:36:17.007Z,31.30
2018-01-12T06:38:45.250Z,33.30
2018-01-12T06:41:14.240Z,28.20
2018-01-12T06:43:43.348Z,28.55
2018-01-12T06:46:11.595Z,26.40
2018-01-12T06:48:39.891Z,31.77
2018-01-12T06:51:08.121Z,31.70
2018-01-12T06:53:36.327Z,28.08
2018-01-12T06:56:05.277Z,26.25
2018-01-12T06:58:33.539Z,29.23
2018-01-12T07:01:01.739Z,27.52
2018-01-12T07:03:29.954Z,31.00
2018-01-12T07:05:58.195Z,30.67
2018-01-12T07:08:26.384Z,31.30
2018-01-12T07:10:55.418Z,29.73
2018-01-12T07:13:24.534Z,31.10
2018-01-12T07:15:52.783Z,31.33
2018-01-12T07:18:21.045Z,29.17
2018-01-12T07:21:07.025Z,29.80
2018-01-12T07:23:48.774Z,31.65
2018-01-12T07:26:17.310Z,30.45
2018-01-12T07:28:45.546Z,30.80
2018-01-12T07:31:14.546Z,29.77
2018-01-12T07:33:42.850Z,31.87
2018-01-12T07:36:11.074Z,29.87
2018-01-12T07:38:39.301Z,31.90
2018-01-12T07:41:07.519Z,32.28
2018-01-12T07:43:35.795Z,33.95
2018-01-12T07:46:03.998Z,32.20
2018-01-12T07:48:32.989Z,36.30
2018-01-12T07:51:01.989Z,34.30
2018-01-12T07:53:30.215Z,34.47
2018-01-12T07:55:58.444Z,35.00
2018-01-12T07:58:27.415Z,34.53
2018-01-12T08:01:01.274Z,33.75
2018-01-12T08:03:30.593Z,35.35
2018-01-12T08:05:59.764Z,34.65
2018-01-12T08:08:28.111Z,38.65
2018-01-12T08:10:57.093Z,32.03
2018-01-12T08:13:26.093Z,34.47
2018-01-12T08:15:55.060Z,36.53
2018-01-12T08:18:23.365Z,35.70
2018-01-12T08:20:52.320Z,39.78
2018-01-12T08:23:20.565Z,34.88
2018-01-12T08:25:48.821Z,38.38
2018-01-12T08:28:17.134Z,33.70
2018-01-12T08:30:45.417Z,40.00
2018-01-12T08:33:13.669Z,41.08
2018-01-12T08:35:41.926Z,38.50
2018-01-12T08:38:10.126Z,36.70
2018-01-12T08:40:38.387Z,43.15
2018-01-12T08:43:07.355Z,40.25
2018-01-12T08:45:35.666Z,41.60
2018-01-12T08:48:03.955Z,39.35
2018-01-12T08:50:32.198Z,42.97
2018-01-12T08:53:00.414Z,41.97
2018-01-12T08:55:28.646Z,39.17
2018-01-12T08:57:56.826Z,39.50
2018-01-12T09:00:26.691Z,40.42
2018-01-12T09:02:55.750Z,40.33
2018-01-12T09:05:24.045Z,40.83
2018-01-12T09:07:52.285Z,36.22
2018-01-12T09:10:21.079Z,41.47
2018-01-12T09:12:49.350Z,43.13
2018-01-12T09:15:23.098Z,37.33
2018-01-12T09:17:51.353Z,40.33
2018-01-12T09:20:19.567Z,40.22
2018-01-12T09:22:48.752Z,39.83
2018-01-12T09:25:25.679Z,41.92
2018-01-12T09:27:54.598Z,38.33
2018-01-12T09:30:22.868Z,39.22
2018-01-12T09:32:51.884Z,38.13
2018-01-12T09:35:21.614Z,35.97
2018-01-12T09:41:02.891Z,38.47
2018-01-12T09:43:31.088Z,39.95
2018-01-12T09:45:59.320Z,38.58
2018-01-12T09:48:27.525Z,38.75
2018-01-12T09:50:56.485Z,41.03
2018-01-12T09:53:24.705Z,38.17
2018-01-12T09:55:52.876Z,34.67
2018-01-12T09:58:21.073Z,43.83
2018-01-12T10:01:02.936Z,37.10
2018-01-12T10:03:31.885Z,40.67
2018-01-12T10:06:00.103Z,39.15
2018-01-12T10:08:28.326Z,40.25
2018-01-12T10:10:56.538Z,39.90
2018-01-12T10:13:24.761Z,37.65
2018-01-12T10:15:52.991Z,38.67
2018-01-12T10:18:35.702Z,37.17
2018-01-12T10:21:19.312Z,40.55
2018-01-12T10:23:47.511Z,41.13
2018-01-12T10:26:15.733Z,41.05
2018-01-12T10:29:01.600Z,39.00
2018-01-12T10:34:44.609Z,36.58
2018-01-12T10:37:13.551Z,32.97
2018-01-12T10:39:59.373Z,34.90
2018-01-12T10:42:27.642Z,35.10
2018-01-12T10:44:55.948Z,40.70
2018-01-12T10:47:27.994Z,36.42
2018-01-12T10:50:17.826Z,39.88
2018-01-12T10:52:50.890Z,38.00
2018-01-12T10:55:19.130Z,41.40
2018-01-12T10:57:47.318Z,39.42
2018-01-12T11:00:33.402Z,40.60
2018-01-12T11:03:02.435Z,41.63
2018-01-12T11:05:30.706Z,37.35
2018-01-12T11:07:58.898Z,37.78
2018-01-12T11:10:27.149Z,38.33
2018-01-12T11:12:55.412Z,35.80
2018-01-12T11:15:23.606Z,36.75
2018-01-12T11:17:51.837Z,38.58
2018-01-12T11:20:20.084Z,41.92
2018-01-12T11:22:48.312Z,38.97
2018-01-12T11:25:16.514Z,43.25
2018-01-12T11:27:44.723Z,43.53
2018-01-12T11:30:12.933Z,40.22
2018-01-12T11:32:41.887Z,39.70
2018-01-12T11:35:10.083Z,38.35
2018-01-12T11:37:39.075Z,37.35
2018-01-12T11:40:08.038Z,34.75
2018-01-12T11:42:36.251Z,36.25
2018-01-12T11:45:05.275Z,36.55
2018-01-12T11:47:33.467Z,39.10
2018-01-12T11:50:01.707Z,36.55
2018-01-12T11:52:29.933Z,39.35
2018-01-12T11:54:58.151Z,36.33
2018-01-12T11:57:26.389Z,39.15
2018-01-12T11:59:54.789Z,35.83
2018-01-12T12:02:23.766Z,35.25
2018-01-12T12:04:51.954Z,42.62
2018-01-12T12:07:20.901Z,41.08
2018-01-12T12:09:49.127Z,39.05
2018-01-12T12:12:17.330Z,34.92
2018-01-12T12:14:45.590Z,30.27
2018-01-12T12:17:13.818Z,33.45
2018-01-12T12:19:42.054Z,33.30
2018-01-12T12:22:10.423Z,37.20
2018-01-12T12:24:38.991Z,31.40
2018-01-12T12:27:07.192Z,33.95
2018-01-12T12:29:35.490Z,32.58
2018-01-12T12:32:03.727Z,32.45
2018-01-12T12:34:32.016Z,35.83
2018-01-12T12:37:00.233Z,31.70
2018-01-12T12:39:29.233Z,30.70
2018-01-12T12:41:58.217Z,30.58
2018-01-12T12:44:28.053Z,30.83
2018-01-12T12:46:57.073Z,29.23
2018-01-12T12:49:25.262Z,32.78
2018-01-12T12:51:53.461Z,31.30
2018-01-12T12:54:21.659Z,26.08
2018-01-12T12:56:50.638Z,27.00
2018-01-12T12:59:19.602Z,27.60
2018-01-12T13:01:47.792Z,29.85
2018-01-12T13:04:17.410Z,28.55
2018-01-12T13:06:45.647Z,26.17
2018-01-12T13:09:13.881Z,29.33
2018-01-12T13:11:42.073Z,25.85
2018-01-12T13:14:10.307Z,30.25
2018-01-12T13:16:39.407Z,25.10
2018-01-12T13:19:08.364Z,27.60
2018-01-12T13:21:36.601Z,29.77
2018-01-12T13:24:05.029Z,24.40
2018-01-12T13:26:33.290Z,27.85
2018-01-12T13:29:01.513Z,28.85
2018-01-12T13:31:29.726Z,27.77
2018-01-12T13:33:57.970Z,24.45
2018-01-12T13:36:26.261Z,29.05
2018-01-12T13:38:55.447Z,29.15
2018-01-12T13:41:23.755Z,26.40
2018-01-12T13:43:51.997Z,26.40
2018-01-12T13:46:20.196Z,24.33
2018-01-12T13:48:48.478Z,25.50
2018-01-12T13:51:16.886Z,25.65
2018-01-12T13:53:45.117Z,27.87
2018-01-12T13:56:13.314Z,30.33
2018-01-12T13:58:41.519Z,26.83
2018-01-12T14:01:10.508Z,26.65
2018-01-12T14:03:39.687Z,26.48
2018-01-12T14:06:07.886Z,26.40
2018-01-12T14:08:36.909Z,24.60
2018-01-12T14:11:05.846Z,25.15
2018-01-12T14:13:34.082Z,24.80
2018-01-12T14:16:02.320Z,23.87
2018-01-12T14:18:31.344Z,24.52
2018-01-12T14:21:00.168Z,23.17
2018-01-12T14:23:29.813Z,26.67
2018-01-12T14:25:58.005Z,25.92
2018-01-12T14:28:26.347Z,21.90
2018-01-12T14:30:55.437Z,21.92
2018-01-12T14:33:24.394Z,23.70
2018-01-12T14:35:52.617Z,19.77
2018-01-12T14:38:21.628Z,19.77
2018-01-12T14:40:49.822Z,20.48
2018-01-12T14:43:18.003Z,21.35
2018-01-12T14:45:46.194Z,20.85
2018-01-12T14:48:14.446Z,20.23
2018-01-12T14:50:42.678Z,24.27
2018-01-12T14:53:10.917Z,22.05
2018-01-12T14:55:39.143Z,21.90
2018-01-12T14:58:07.386Z,20.98
2018-01-12T15:00:35.616Z,20.52
2018-01-12T15:03:03.924Z,19.85
2018-01-12T15:05:32.165Z,19.48
2018-01-12T15:08:00.365Z,20.85
2018-01-12T15:10:28.634Z,18.83
2018-01-12T15:12:56.979Z,21.85
2018-01-12T15:15:25.249Z,19.48
2018-01-12T15:17:53.439Z,16.85
2018-01-12T15:20:22.836Z,18.45
2018-01-12T15:22:51.148Z,18.10
2018-01-12T15:25:19.369Z,18.75
2018-01-12T15:27:47.654Z,16.00
2018-01-12T15:30:15.866Z,15.77
2018-01-12T15:32:44.104Z,15.63
2018-01-12T15:35:12.922Z,16.42
2018-01-12T15:37:41.450Z,15.98
2018-01-12T15:40:10.420Z,14.45
2018-01-12T15:42:39.409Z,16.37
2018-01-12T15:45:07.619Z,15.63
2018-01-12T15:47:35.818Z,17.00
2018-01-12T15:50:05.154Z,14.75
2018-01-12T15:52:33.375Z,16.12
2018-01-12T15:55:01.686Z,15.07
2018-01-12T15:57:30.681Z,14.38
2018-01-12T15:59:58.902Z,15.10
2018-01-12T16:02:27.226Z,14.80
2018-01-12T16:04:55.434Z,14.80
2018-01-12T16:07:24.418Z,14.35
2018-01-12T16:09:52.634Z,14.50
2018-01-12T16:12:20.845Z,14.35
2018-01-12T16:14:49.043Z,13.85
2018-01-12T16:17:17.232Z,15.50
2018-01-12T16:19:46.202Z,15.75
2018-01-12T16:22:14.420Z,15.60
2018-01-12T16:24:42.660Z,13.77
2018-01-12T16:27:11.649Z,14.52
2018-01-12T16:29:40.609Z,14.55
2018-01-12T16:32:08.902Z,13.45
2018-01-12T16:34:37.166Z,15.25
2018-01-12T16:37:05.396Z,13.35
2018-01-12T16:39:33.636Z,13.52
2018-01-12T16:42:01.833Z,13.38
2018-01-12T16:44:30.798Z,13.40
2018-01-12T16:46:59.049Z,15.00
2018-01-12T16:49:27.278Z,14.93
2018-01-12T16:51:55.545Z,13.18
2018-01-12T16:54:24.517Z,13.32
2018-01-12T16:56:52.794Z,12.98
2018-01-12T16:59:21.028Z,13.65
2018-01-12T17:01:49.246Z,13.15
2018-01-12T17:04:18.273Z,13.35
2018-01-12T17:06:46.478Z,13.27
2018-01-12T17:09:14.719Z,12.80
2018-01-12T17:11:43.000Z,12.77
2018-01-12T17:14:11.215Z,12.70
2018-01-12T17:16:39.511Z,13.10
2018-01-12T17:19:08.517Z,13.38
2018-01-12T17:21:36.749Z,13.35
2018-01-12T17:24:04.953Z,13.23
2018-01-12T17:26:33.979Z,13.85
2018-01-12T17:29:03.000Z,12.23
2018-01-12T17:31:31.268Z,13.70
2018-01-12T17:33:59.562Z,13.93
2018-01-12T17:36:27.790Z,13.20
2018-01-12T17:38:56.076Z,13.43
2018-01-12T17:41:24.278Z,12.70
2018-01-12T17:43:52.485Z,13.60
2018-01-12T17:46:21.588Z,13.70
2018-01-12T17:48:50.575Z,13.45
2018-01-12T17:51:19.598Z,11.90
2018-01-12T17:53:48.799Z,13.90
2018-01-12T17:56:17.117Z,14.20
2018-01-12T17:58:45.343Z,11.95
2018-01-12T18:01:13.612Z,13.00
2018-01-12T18:03:41.850Z,13.40
2018-01-12T18:06:10.159Z,13.95
2018-01-12T18:08:38.374Z,13.90
2018-01-12T18:11:06.575Z,13.07
2018-01-12T18:13:34.851Z,13.82
2018-01-12T18:16:03.855Z,14.15
2018-01-12T18:18:32.050Z,14.85
2018-01-12T18:21:00.233Z,14.65
2018-01-12T18:23:28.546Z,15.93
2018-01-12T18:25:56.774Z,14.57
2018-01-12T18:28:24.983Z,13.40
2018-01-12T18:30:53.183Z,14.10
2018-01-12T18:33:21.383Z,14.40
2018-01-12T18:35:50.358Z,14.82
2018-01-12T18:38:18.580Z,15.05
2018-01-12T18:40:46.787Z,15.25
2018-01-12T18:43:15.151Z,14.40
2018-01-12T18:45:43.350Z,15.80
2018-01-12T18:48:11.701Z,15.90
2018-01-12T18:50:39.977Z,14.93
2018-01-12T18:53:08.280Z,15.25
2018-01-12T18:55:36.487Z,15.15
2018-01-12T18:58:04.771Z,16.17
2018-01-12T19:00:32.973Z,14.40
2018-01-12T19:03:01.146Z,15.32
2018-01-12T19:05:29.442Z,17.37
2018-01-12T19:07:57.770Z,15.13
2018-01-12T19:10:26.085Z,15.57
2018-01-12T19:19:08.549Z,15.80
2018-01-12T19:21:36.754Z,40.03
2018-01-12T19:24:05.779Z,148.62
2018-01-12T19:26:34.012Z,208.05
2018-01-12T19:29:02.277Z,228.88
2018-01-12T19:31:30.583Z,236.37
2018-01-12T19:33:59.575Z,230.57
2018-01-12T19:36:27.909Z,174.98
2018-01-12T19:38:56.184Z,162.02
2018-01-12T19:41:24.425Z,174.70
2018-01-12T19:43:52.646Z,128.05
2018-01-12T19:46:20.844Z,113.22
2018-01-12T19:48:49.039Z,90.80
2018-01-12T19:51:17.283Z,84.18
2018-01-12T19:53:45.542Z,74.45
2018-01-12T19:56:13.798Z,64.30
2018-01-12T19:58:42.157Z,60.45
2018-01-12T20:01:10.455Z,57.65
2018-01-12T20:03:38.765Z,46.90
2018-01-12T20:06:08.082Z,39.30
2018-01-12T20:08:36.476Z,42.10
2018-01-12T20:11:05.566Z,38.83
2018-01-12T20:13:33.837Z,37.33
2018-01-12T20:16:02.072Z,31.30
2018-01-12T20:18:30.329Z,26.48
2018-01-12T20:20:58.569Z,26.90
2018-01-12T20:23:26.798Z,28.30
2018-01-12T20:25:55.108Z,25.37
2018-01-12T20:28:23.330Z,25.67
2018-01-12T20:30:51.574Z,19.05
2018-01-12T20:33:19.788Z,19.98
2018-01-12T20:35:48.023Z,19.17
2018-01-12T20:38:16.343Z,20.75
2018-01-12T20:40:44.615Z,32.08
2018-01-12T20:43:12.832Z,22.30
2018-01-12T20:45:41.066Z,23.23
2018-01-12T20:48:09.268Z,22.67
2018-01-12T20:50:38.253Z,21.58
2018-01-12T20:53:07.258Z,18.45
2018-01-12T20:55:36.210Z,19.25
2018-01-12T20:58:04.425Z,19.62
2018-01-12T21:00:32.655Z,16.95
2018-01-12T21:03:01.043Z,19.10
2018-01-12T21:05:29.351Z,18.67
2018-01-12T21:07:58.340Z,17.87
2018-01-12T21:10:27.345Z,21.80
2018-01-12T21:12:55.583Z,18.42
2018-01-12T21:15:23.910Z,18.12
2018-01-12T21:17:52.215Z,17.15
2018-01-12T21:20:20.470Z,17.33
2018-01-12T21:22:48.992Z,17.40
2018-01-12T21:25:17.343Z,18.62
2018-01-12T21:27:45.606Z,18.05
2018-01-12T21:30:13.916Z,17.70
2018-01-12T21:32:42.168Z,18.65
2018-01-12T21:35:10.442Z,18.95
2018-01-12T21:37:38.678Z,18.10
2018-01-12T21:40:06.944Z,19.00
2018-01-12T21:42:35.935Z,17.37
2018-01-12T21:45:04.967Z,18.23
2018-01-12T21:47:33.396Z,18.37
2018-01-12T21:50:02.457Z,19.17
2018-01-12T21:52:30.785Z,18.40
2018-01-12T21:54:59.080Z,19.20
2018-01-12T21:57:27.303Z,17.77
2018-01-12T21:59:55.572Z,17.45
2018-01-12T22:02:23.844Z,20.90
2018-01-12T22:04:52.093Z,18.50
2018-01-12T22:07:20.317Z,19.85
2018-01-12T22:09:49.253Z,19.42
2018-01-12T22:12:17.626Z,18.77
2018-01-12T22:14:45.832Z,19.42
2018-01-12T22:17:14.077Z,18.30
2018-01-12T22:19:42.281Z,19.05
2018-01-12T22:22:10.557Z,17.77
2018-01-12T22:24:38.780Z,18.50
2018-01-12T22:27:07.073Z,20.83
2018-01-12T22:29:35.263Z,17.17
2018-01-12T22:32:03.508Z,17.75
2018-01-12T22:34:31.753Z,18.83
2018-01-12T22:37:00.886Z,19.70
2018-01-12T22:42:09.791Z,19.87
2018-01-12T22:44:38.772Z,19.33
2018-01-12T22:47:07.009Z,19.12
2018-01-12T22:49:35.264Z,18.85
2018-01-12T22:52:03.488Z,18.45
2018-01-12T22:54:31.732Z,19.08
2018-01-12T22:56:59.947Z,17.83
2018-01-12T22:59:29.046Z,19.10
2018-01-12T23:01:58.027Z,19.58
2018-01-12T23:04:26.277Z,18.42
2018-01-12T23:06:55.217Z,18.98
2018-01-12T23:09:23.404Z,20.00
2018-01-12T23:11:51.623Z,19.15
2018-01-12T23:14:20.581Z,19.58
2018-01-12T23:16:48.840Z,20.10
2018-01-12T23:19:17.822Z,20.58
2018-01-12T23:21:46.138Z,19.67
2018-01-12T23:24:14.321Z,19.23
2018-01-12T23:26:42.569Z,18.55
2018-01-12T23:29:10.817Z,18.80
2018-01-12T23:31:39.022Z,17.55
2018-01-12T23:34:07.314Z,17.80
2018-01-12T23:36:35.501Z,18.65
2018-01-12T23:39:03.685Z,17.77
2018-01-12T23:41:31.940Z,17.67
2018-01-12T23:44:01.017Z,18.50
2018-01-12T23:46:29.221Z,18.40
2018-01-12T23:48:57.428Z,17.92
2018-01-12T23:51:26.382Z,18.80
2018-01-12T23:53:54.579Z,19.05
2018-01-12T23:56:23.574Z,19.50
2018-01-12T23:58:51.878Z,17.85
